Time;durP1;ratioP1;P1;durP2;ratioP2;P2;SDS_P1;SDS_P2;PMS_P1;PMS_P2;Temp;Humidity;BMP_temperature;BMP_pressure;BME280_temperature;BME280_humidity;BME280_pressure;Samples;Min_cycle;Max_cycle;Signal;HPM_P1;HPM_P2
2022/05/23 00:00:59;;;;;;;6.63;2.00;;;;;;;16.56;83.68;95911.06;5044996;28;20036;-64
2022/05/23 00:03:27;;;;;;;6.80;2.30;;;;;;;16.43;84.52;95904.63;5026731;28;20057;-64
2022/05/23 00:05:53;;;;;;;4.05;1.77;;;;;;;16.36;84.62;95899.25;5041121;28;20444;-64
2022/05/23 00:08:21;;;;;;;10.35;5.28;;;;;;;16.40;83.79;95905.47;5034608;28;20040;-64
2022/05/23 00:10:47;;;;;;;5.53;1.95;;;;;;;16.40;83.24;95905.47;5039229;28;20055;-64
2022/05/23 00:13:13;;;;;;;3.97;1.83;;;;;;;16.32;83.51;95902.09;5048691;28;20053;-65
2022/05/23 00:15:39;;;;;;;3.10;1.67;;;;;;;16.29;84.14;95900.16;5050892;28;20060;-65
2022/05/23 00:18:04;;;;;;;3.85;1.85;;;;;;;16.27;84.97;95902.56;5051456;28;20032;-64
2022/05/23 00:20:30;;;;;;;3.78;1.88;;;;;;;16.31;84.38;95889.47;5048308;28;20086;-65
2022/05/23 00:22:55;;;;;;;3.42;1.90;;;;;;;15.92;85.69;95892.94;5050142;28;20106;-64
2022/05/23 00:25:21;;;;;;;3.83;2.47;;;;;;;14.81;94.05;95892.66;5059456;28;20017;-65
2022/05/23 00:27:46;;;;;;;5.13;1.77;;;;;;;14.70;96.31;95892.78;5061948;28;20118;-63
2022/05/23 00:30:15;;;;;;;4.22;1.63;;;;;;;14.91;95.66;95902.75;5050853;28;20090;-64
2022/05/23 00:35:25;;;;;;;7.05;2.05;;;;;;;14.64;97.18;95894.41;5030552;28;20762;-62
2022/05/23 00:37:53;;;;;;;6.35;2.42;;;;;;;14.38;99.87;95885.66;5032123;28;20033;-64
2022/05/23 00:40:30;;;;;;;2.92;1.90;;;;;;;14.61;99.36;95875.97;5050486;28;20029;-65
2022/05/23 00:43:14;;;;;;;3.42;1.90;;;;;;;14.89;97.51;95870.09;5052482;28;20041;-66
2022/05/23 00:45:46;;;;;;;6.18;2.03;;;;;;;15.04;95.59;95864.38;5055196;28;20060;-66
2022/05/23 00:48:13;;;;;;;3.15;1.77;;;;;;;14.50;98.77;95851.28;5019860;28;20036;-65
2022/05/23 00:50:46;;;;;;;6.22;1.90;;;;;;;14.51;100.00;95856.38;5032603;28;20033;-66
2022/05/23 00:53:12;;;;;;;4.65;2.00;;;;;;;14.66;99.43;95842.44;5015903;28;20027;-64
2022/05/23 00:55:47;;;;;;;2.65;1.80;;;;;;;14.82;98.73;95845.38;5049035;28;20033;-67
2022/05/23 00:58:35;;;;;;;4.10;1.63;;;;;;;14.89;96.50;95856.28;5049633;28;20610;-65
2022/05/23 01:01:05;;;;;;;4.80;1.77;;;;;;;15.03;96.61;95854.53;5047967;28;20382;-64
2022/05/23 01:03:31;;;;;;;4.85;1.98;;;;;;;14.94;96.05;95849.53;5049600;28;20025;-65
2022/05/23 01:05:56;;;;;;;3.22;2.00;;;;;;;15.03;95.84;95844.25;5048981;28;20021;-65
2022/05/23 01:08:22;;;;;;;4.55;2.03;;;;;;;15.04;95.62;95858.84;5050851;28;20454;-64
2022/05/23 01:10:47;;;;;;;3.15;1.80;;;;;;;14.91;97.45;95867.69;5050790;28;20024;-65
2022/05/23 01:13:14;;;;;;;5.18;1.90;;;;;;;14.84;97.28;95867.78;5049310;28;20041;-64
2022/05/23 01:15:44;;;;;;;7.32;2.28;;;;;;;14.90;97.20;95863.34;5049809;28;20064;-64
2022/05/23 01:18:10;;;;;;;4.45;1.77;;;;;;;15.00;95.17;95861.66;5050448;28;20521;-64
2022/05/23 01:20:35;;;;;;;3.95;1.88;;;;;;;15.00;95.30;95847.06;5050498;28;20044;-65
2022/05/23 01:23:09;;;;;;;3.88;2.10;;;;;;;15.18;95.63;95855.06;5049813;28;20083;-64
2022/05/23 01:25:38;;;;;;;4.57;2.35;;;;;;;15.16;94.44;95838.97;5049679;28;20040;-65
2022/05/23 01:28:04;;;;;;;5.82;2.20;;;;;;;15.26;92.91;95837.22;5050456;28;20460;-65
2022/05/23 01:30:34;;;;;;;6.32;2.40;;;;;;;15.12;93.87;95832.72;5032560;28;20082;-65
2022/05/23 01:33:04;;;;;;;3.60;2.30;;;;;;;15.13;93.97;95833.50;5050964;28;20039;-66
2022/05/23 01:35:31;;;;;;;3.83;2.20;;;;;;;15.24;94.11;95820.31;5015895;28;20033;-66
2022/05/23 01:37:56;;;;;;;4.00;2.50;;;;;;;15.38;94.69;95811.03;5033204;28;20136;-64
2022/05/23 01:40:22;;;;;;;5.05;2.58;;;;;;;15.65;92.76;95808.97;5055043;28;20056;-65
2022/05/23 01:42:48;;;;;;;6.57;1.95;;;;;;;15.71;91.77;95819.53;5054614;28;20036;-64
2022/05/23 01:45:21;;;;;;;5.43;1.73;;;;;;;15.57;92.95;95826.09;5054860;28;20091;-61
2022/05/23 01:47:46;;;;;;;3.70;1.80;;;;;;;15.53;93.36;95830.88;5041552;28;20036;-64
2022/05/23 01:50:12;;;;;;;3.80;2.20;;;;;;;15.19;95.53;95818.03;5065134;28;20040;-64
2022/05/23 01:52:39;;;;;;;3.60;1.92;;;;;;;15.12;96.80;95815.38;5048350;28;20052;-65
2022/05/23 01:55:04;;;;;;;3.03;1.92;;;;;;;15.21;96.41;95807.34;5064572;28;20037;-64
2022/05/23 01:57:31;;;;;;;3.15;1.80;;;;;;;15.26;96.22;95807.66;5064707;28;20039;-63
2022/05/23 02:02:44;;;;;;;3.78;2.15;;;;;;;15.29;94.28;95804.06;5066130;28;20059;-65
2022/05/23 02:05:11;;;;;;;6.05;2.33;;;;;;;15.31;95.44;95805.66;5065837;28;20427;-64
2022/05/23 02:07:36;;;;;;;5.00;2.25;;;;;;;15.19;96.35;95802.25;5055782;28;20039;-63
2022/05/23 02:10:02;;;;;;;5.95;2.08;;;;;;;15.17;96.32;95801.13;5054584;28;20025;-63
2022/05/23 02:12:28;;;;;;;3.38;1.90;;;;;;;15.15;96.98;95803.53;5050826;28;20045;-64
2022/05/23 02:14:54;;;;;;;3.83;2.03;;;;;;;15.07;97.19;95797.31;5053823;28;20040;-64
2022/05/23 02:17:19;;;;;;;5.78;2.10;;;;;;;15.00;98.29;95797.44;5053131;28;20055;-64
2022/05/23 02:19:46;;;;;;;3.58;2.10;;;;;;;14.88;99.07;95804.31;5053508;28;20021;-64
2022/05/23 02:22:11;;;;;;;4.63;2.38;;;;;;;14.91;99.20;95798.75;5052890;28;20414;-63
2022/05/23 02:24:37;;;;;;;5.60;1.90;;;;;;;14.97;99.12;95795.53;5034969;28;20033;-64
2022/05/23 02:27:02;;;;;;;3.20;1.67;;;;;;;14.91;97.56;95792.47;5052281;28;20033;-63
2022/05/23 02:29:28;;;;;;;3.50;2.28;;;;;;;14.69;98.89;95800.25;5052957;28;20505;-63
2022/05/23 02:31:53;;;;;;;4.75;1.98;;;;;;;14.66;99.60;95790.09;5053131;28;20037;-64
2022/05/23 02:34:19;;;;;;;5.93;2.30;;;;;;;14.41;100.00;95791.16;5034898;28;20112;-64
2022/05/23 02:36:46;;;;;;;3.25;1.95;;;;;;;14.36;100.00;95783.38;5034224;28;20435;-63
2022/05/23 02:39:13;;;;;;;4.00;2.30;;;;;;;14.42;100.00;95787.22;5041088;28;20490;-62
2022/05/23 02:41:39;;;;;;;4.25;2.30;;;;;;;14.51;100.00;95789.44;5050275;28;20036;-64
2022/05/23 02:44:05;;;;;;;9.40;2.53;;;;;;;14.62;100.00;95790.13;5052266;28;20033;-64
2022/05/23 02:46:31;;;;;;;7.55;2.47;;;;;;;14.49;100.00;95787.09;5033142;28;20029;-61
2022/05/23 02:48:56;;;;;;;7.10;2.28;;;;;;;14.60;100.00;95786.22;5052185;28;20029;-64
2022/05/23 02:51:22;;;;;;;4.45;2.25;;;;;;;14.47;100.00;95784.00;5052349;28;20143;-64
2022/05/23 02:53:48;;;;;;;4.05;2.35;;;;;;;14.37;100.00;95781.38;5049053;28;20071;-62
2022/05/23 02:56:15;;;;;;;6.22;2.25;;;;;;;14.41;100.00;95773.88;5027911;28;20033;-64
2022/05/23 02:58:40;;;;;;;7.28;2.50;;;;;;;14.54;100.00;95763.84;5052351;28;20059;-64
2022/05/23 03:01:06;;;;;;;5.97;2.25;;;;;;;14.62;100.00;95761.78;5052605;28;20053;-64
2022/05/23 03:03:33;;;;;;;6.43;2.20;;;;;;;14.56;100.00;95766.19;5050583;28;20503;-65
2022/05/23 03:05:58;;;;;;;3.28;2.25;;;;;;;14.46;100.00;95757.66;5014660;28;20064;-62
2022/05/23 03:08:26;;;;;;;5.20;2.60;;;;;;;14.45;100.00;95755.31;5032319;28;20065;-64
2022/05/23 03:10:55;;;;;;;4.72;2.38;;;;;;;14.42;100.00;95754.19;5032572;28;20030;-63
2022/05/23 03:13:20;;;;;;;3.97;2.50;;;;;;;14.38;100.00;95749.91;5042451;28;20026;-64
2022/05/23 03:15:45;;;;;;;3.95;2.25;;;;;;;14.43;100.00;95744.69;5033376;28;20036;-63
2022/05/23 03:18:11;;;;;;;8.85;2.83;;;;;;;14.51;100.00;95753.63;5038657;28;20025;-65
2022/05/23 03:20:37;;;;;;;5.78;2.65;;;;;;;14.47;100.00;95747.41;5050235;28;20039;-65
2022/05/23 03:28:32;;;;;;;3.85;2.20;;;;;;;14.37;100.00;95743.63;5052054;28;20434;-63
2022/05/23 03:30:58;;;;;;;4.07;2.33;;;;;;;14.46;100.00;95743.88;5050903;28;20134;-65
2022/05/23 03:33:23;;;;;;;3.80;2.17;;;;;;;14.57;100.00;95740.16;5042806;28;20041;-65
2022/05/23 03:35:49;;;;;;;5.97;2.45;;;;;;;14.72;100.00;95731.31;5033534;28;20248;-64
2022/05/23 03:38:15;;;;;;;5.55;2.40;;;;;;;14.75;100.00;95735.22;5052185;28;20337;-64
2022/05/23 03:40:41;;;;;;;7.82;2.55;;;;;;;14.70;100.00;95738.44;5034389;28;20021;-63
2022/05/23 03:43:07;;;;;;;6.63;2.90;;;;;;;14.82;100.00;95743.38;5050574;28;20036;-64
2022/05/23 03:45:33;;;;;;;3.55;2.30;;;;;;;14.81;100.00;95735.53;5042918;28;20044;-66
2022/05/23 03:48:00;;;;;;;5.18;2.95;;;;;;;14.79;100.00;95738.69;5052044;28;20062;-64
2022/05/23 03:50:28;;;;;;;5.57;2.80;;;;;;;14.34;100.00;95733.41;5043439;28;20033;-64
2022/05/23 03:52:54;;;;;;;3.67;2.78;;;;;;;14.03;100.00;95729.91;5056929;28;20024;-64
2022/05/23 03:55:21;;;;;;;6.78;2.70;;;;;;;14.02;100.00;95722.84;5049058;28;20029;-61
2022/05/23 03:57:46;;;;;;;5.40;3.03;;;;;;;14.00;100.00;95719.72;5066752;28;20101;-63
2022/05/23 04:00:13;;;;;;;8.50;2.97;;;;;;;14.18;100.00;95736.78;5061156;28;20111;-64
2022/05/23 04:02:40;;;;;;;5.60;2.75;;;;;;;14.22;100.00;95736.72;5053394;28;20474;-64
2022/05/23 04:05:07;;;;;;;9.73;2.65;;;;;;;14.29;100.00;95767.69;5034612;28;20378;-64
2022/05/23 04:07:35;;;;;;;4.30;2.67;;;;;;;14.60;100.00;95798.00;5052168;28;20033;-63
2022/05/23 04:10:00;;;;;;;10.23;2.92;;;;;;;14.88;100.00;95785.81;5051405;28;20029;-63
2022/05/23 04:12:26;;;;;;;6.60;2.50;;;;;;;14.94;100.00;95766.81;5052608;28;20025;-64
2022/05/23 04:14:51;;;;;;;5.72;2.60;;;;;;;14.98;100.00;95752.97;5061800;28;20037;-64
2022/05/23 04:17:17;;;;;;;6.70;2.92;;;;;;;14.12;100.00;95739.22;5060944;28;20043;-64
2022/05/23 04:19:42;;;;;;;4.80;2.85;;;;;;;13.90;100.00;95744.22;5060892;28;20029;-63
2022/05/23 04:22:08;;;;;;;4.03;2.78;;;;;;;14.08;100.00;95745.94;5058399;28;20024;-63
2022/05/23 04:24:33;;;;;;;6.70;3.10;;;;;;;14.03;100.00;95755.47;5056266;28;20033;-64
2022/05/23 04:26:59;;;;;;;5.57;3.15;;;;;;;14.06;100.00;95753.84;5059134;28;20036;-64
2022/05/23 04:29:25;;;;;;;8.88;3.28;;;;;;;14.44;100.00;95760.03;5059466;28;20477;-64
2022/05/23 04:31:50;;;;;;;5.70;2.90;;;;;;;14.79;100.00;95757.22;5052702;28;20051;-64
2022/05/23 04:37:00;;;;;;;6.40;3.00;;;;;;;15.07;100.00;95792.63;5051020;28;20029;-63
2022/05/23 04:39:26;;;;;;;6.15;3.25;;;;;;;15.08;100.00;95841.03;5031825;28;20135;-64
2022/05/23 04:41:51;;;;;;;5.78;2.60;;;;;;;15.15;100.00;95855.94;5050625;28;20033;-64
2022/05/23 04:44:17;;;;;;;3.92;2.60;;;;;;;15.08;100.00;95848.53;5050868;28;20107;-64
2022/05/23 04:49:42;;;;;;;7.68;2.53;;;;;;;15.16;100.00;95863.78;5061699;28;20084;-64
2022/05/23 04:52:12;;;;;;;8.05;2.88;;;;;;;15.35;100.00;95853.25;5054102;28;20096;-64
2022/05/23 04:54:38;;;;;;;;;;;;;;;15.46;100.00;95835.31;5048638;28;20078;-63
2022/05/23 04:57:05;;;;;;;7.47;2.83;;;;;;;15.55;100.00;95831.25;5049687;28;19974;-66
2022/05/23 04:59:31;;;;;;;4.68;2.70;;;;;;;15.67;99.91;95833.41;5049528;28;20025;-64
2022/05/23 05:01:56;;;;;;;5.30;2.55;;;;;;;15.68;98.73;95823.91;5040736;28;20099;-64
2022/05/23 05:04:22;;;;;;;8.00;2.63;;;;;;;15.78;98.83;95824.97;5050027;28;20032;-65
2022/05/23 05:06:47;;;;;;;4.85;2.47;;;;;;;15.92;98.27;95834.94;5046731;28;20091;-63
2022/05/23 05:09:13;;;;;;;6.28;2.92;;;;;;;16.03;97.21;95830.03;5043914;28;20044;-65
2022/05/23 05:11:38;;;;;;;6.10;2.55;;;;;;;15.70;98.79;95813.25;5032640;28;20113;-65
2022/05/23 05:14:05;;;;;;;5.97;2.75;;;;;;;15.82;98.37;95817.38;5045181;28;20063;-64
2022/05/23 05:16:31;;;;;;;5.65;2.90;;;;;;;16.17;96.22;95831.72;5049161;28;20486;-64
2022/05/23 05:18:58;;;;;;;6.13;3.10;;;;;;;16.27;95.45;95829.97;5052814;28;20564;-64
2022/05/23 05:21:23;;;;;;;3.65;2.60;;;;;;;16.29;96.04;95824.78;5052470;28;20052;-64
2022/05/23 05:23:49;;;;;;;8.88;2.83;;;;;;;16.55;94.64;95823.06;5053364;28;20052;-65
2022/05/23 05:26:14;;;;;;;11.68;2.85;;;;;;;16.68;93.67;95821.19;5055060;28;20021;-67
2022/05/23 05:28:39;;;;;;;5.30;2.10;;;;;;;16.77;92.83;95815.84;5045638;28;20029;-65
2022/05/23 05:31:33;;;;;;;9.50;2.83;;;;;;;16.97;92.09;95806.75;5054216;28;20036;-65
2022/05/23 05:34:04;;;;;;;6.65;2.72;;;;;;;16.92;91.69;95807.28;5048542;28;20040;-65
2022/05/23 05:36:37;;;;;;;5.68;2.90;;;;;;;17.09;91.99;95813.63;5053174;28;20089;-65
2022/05/23 05:39:05;;;;;;;6.88;2.67;;;;;;;17.28;90.76;95812.75;5054384;28;20029;-64
2022/05/23 05:41:57;;;;;;;6.22;2.70;;;;;;;17.15;92.21;95809.88;5052085;28;20036;-65
2022/05/23 05:44:30;;;;;;;5.60;2.95;;;;;;;16.10;100.00;95784.88;5021834;28;20386;-63
2022/05/23 05:46:59;;;;;;;9.07;3.65;;;;;;;15.17;100.00;95743.22;5052952;28;20041;-65
2022/05/23 05:49:28;;;;;;;7.00;3.83;;;;;;;15.01;100.00;95741.09;5045699;28;20033;-65
2022/05/23 05:52:01;;;;;;;6.13;3.78;;;;;;;14.96;100.00;95747.09;5049660;28;20291;-65
2022/05/23 05:54:29;;;;;;;7.85;4.20;;;;;;;15.14;100.00;95763.34;5048664;28;20036;-65
2022/05/23 05:56:57;;;;;;;7.47;3.67;;;;;;;15.38;100.00;95769.66;5050813;28;20049;-64
2022/05/23 05:59:24;;;;;;;9.00;4.70;;;;;;;15.97;100.00;95759.91;5053316;28;20508;-62
2022/05/23 06:01:49;;;;;;;18.23;9.90;;;;;;;15.96;100.00;95745.31;5044432;28;20037;-63
2022/05/23 06:04:15;;;;;;;19.92;11.05;;;;;;;16.06;100.00;95765.63;5053431;28;20056;-64
2022/05/23 06:12:08;;;;;;;9.30;3.35;;;;;;;17.30;100.00;95793.72;5045831;28;20032;-64
2022/05/23 06:14:34;;;;;;;7.18;3.08;;;;;;;17.87;100.00;95802.59;5034913;28;20048;-65
2022/05/23 06:17:00;;;;;;;6.32;3.20;;;;;;;18.73;98.26;95799.38;5052316;28;20473;-65
2022/05/23 06:19:25;;;;;;;6.18;3.30;;;;;;;20.75;84.38;95801.75;5046558;28;20385;-65
2022/05/23 06:21:51;;;;;;;6.68;2.83;;;;;;;22.14;75.22;95803.66;5052797;28;20040;-65
2022/05/23 06:24:16;;;;;;;4.82;2.70;;;;;;;22.54;68.95;95804.72;5052959;28;20084;-64
2022/05/23 06:26:42;;;;;;;5.28;2.55;;;;;;;23.43;66.64;95790.63;5017557;28;20028;-64
2022/05/23 06:29:07;;;;;;;4.32;2.95;;;;;;;22.68;68.54;95798.50;5052847;28;20414;-65
2022/05/23 06:31:33;;;;;;;7.03;3.53;;;;;;;23.19;65.41;95796.97;5035195;28;20108;-64
2022/05/23 06:33:59;;;;;;;6.18;2.83;;;;;;;23.61;64.19;95810.06;5030698;28;20058;-64
2022/05/23 06:36:24;;;;;;;5.78;2.47;;;;;;;24.17;61.68;95799.28;5051448;28;20044;-63
2022/05/23 06:38:50;;;;;;;8.20;2.97;;;;;;;23.45;64.08;95790.94;5032043;28;20078;-65
2022/05/23 06:41:16;;;;;;;10.05;2.70;;;;;;;20.19;79.52;95783.94;5057647;28;20067;-64
2022/05/23 06:43:43;;;;;;;9.07;3.17;;;;;;;21.47;75.37;95782.25;5052361;28;20036;-64
2022/05/23 06:46:11;;;;;;;7.25;3.13;;;;;;;20.50;78.43;95772.84;5049945;28;20033;-65
2022/05/23 06:48:37;;;;;;;9.70;2.95;;;;;;;19.39;84.79;95766.41;5043852;28;20040;-65
2022/05/23 06:51:03;;;;;;;7.45;2.95;;;;;;;19.79;84.31;95762.28;5034355;28;20039;-65
2022/05/23 06:53:29;;;;;;;4.40;2.92;;;;;;;19.57;86.59;95763.03;5034267;28;20037;-64
2022/05/23 06:55:55;;;;;;;8.95;3.63;;;;;;;19.90;85.17;95748.81;5041311;28;20044;-64
2022/05/23 06:58:21;;;;;;;8.80;2.95;;;;;;;19.14;90.22;95742.25;5051958;28;20036;-65
2022/05/23 07:00:49;;;;;;;5.28;3.15;;;;;;;19.03;92.29;95741.78;5052191;28;20075;-63
2022/05/23 07:03:15;;;;;;;5.95;3.33;;;;;;;19.22;89.11;95715.03;5052205;28;20698;-64
2022/05/23 07:13:55;;;;;;;7.57;3.25;;;;;;;20.28;82.09;95717.25;5052152;28;20051;-65
2022/05/23 07:16:22;;;;;;;9.60;3.28;;;;;;;20.93;77.77;95717.56;5051135;28;20112;-65
2022/05/23 07:18:47;;;;;;;8.30;3.15;;;;;;;20.54;79.85;95717.06;5034231;28;20123;-62
2022/05/23 07:21:13;;;;;;;6.82;3.00;;;;;;;21.34;77.52;95704.34;5051952;28;20111;-64
2022/05/23 07:23:38;;;;;;;8.35;3.28;;;;;;;20.96;78.67;95692.38;5049498;28;20131;-65
2022/05/23 07:26:06;;;;;;;10.52;3.40;;;;;;;20.57;81.42;95693.91;5050934;28;20083;-64
2022/05/23 07:28:32;;;;;;;9.15;3.40;;;;;;;20.33;82.48;95683.31;5051245;28;20032;-64
2022/05/23 07:30:58;;;;;;;7.22;3.50;;;;;;;21.21;76.94;95679.41;5043981;28;20499;-64
2022/05/23 07:33:24;;;;;;;5.97;3.42;;;;;;;21.85;77.32;95686.28;5042873;28;20037;-64
2022/05/23 07:36:00;;;;;;;9.57;3.47;;;;;;;21.36;76.74;95685.16;5048316;28;20079;-65
2022/05/23 07:38:27;;;;;;;10.55;3.78;;;;;;;21.53;76.93;95688.44;5031550;28;20048;-66
2022/05/23 07:40:54;;;;;;;9.27;3.30;;;;;;;22.32;74.33;95688.53;5022909;28;20060;-66
2022/05/23 07:43:20;;;;;;;10.80;3.17;;;;;;;21.96;74.34;95684.53;5017721;28;20048;-64
2022/05/23 07:45:48;;;;;;;9.93;3.42;;;;;;;22.54;74.75;95690.31;5039471;28;20409;-64
2022/05/23 07:48:14;;;;;;;9.98;3.00;;;;;;;23.09;71.27;95678.91;5035622;28;20041;-66
2022/05/23 07:50:39;;;;;;;14.45;3.50;;;;;;;21.51;78.04;95669.41;5049437;28;20397;-63
2022/05/23 08:01:17;;;;;;;10.05;3.10;;;;;;;22.27;75.89;95661.28;5030289;28;20060;-65
2022/05/23 08:03:46;;;;;;;10.05;3.60;;;;;;;23.11;74.81;95664.47;5040755;28;20037;-65
2022/05/23 08:06:11;;;;;;;10.15;3.38;;;;;;;23.25;72.11;95663.00;5016544;28;20048;-63
2022/05/23 08:08:37;;;;;;;7.40;3.55;;;;;;;22.42;76.54;95649.44;5041434;28;20493;-64
2022/05/23 08:11:08;;;;;;;10.93;3.40;;;;;;;24.32;71.30;95645.41;5038622;28;20065;-61
2022/05/23 08:13:35;;;;;;;9.25;4.15;;;;;;;24.75;66.87;95631.84;5040696;28;20044;-65
2022/05/23 08:16:00;;;;;;;8.68;3.30;;;;;;;23.87;69.72;95622.28;5029918;28;20064;-65
2022/05/23 08:18:26;;;;;;;8.55;3.58;;;;;;;22.23;78.29;95612.47;5044764;28;20830;-62
2022/05/23 08:20:51;;;;;;;8.65;3.90;;;;;;;22.44;77.17;95616.28;5056275;28;20045;-67
2022/05/23 08:23:16;;;;;;;11.13;4.50;;;;;;;22.11;79.90;95612.19;5039091;28;20490;-66
2022/05/23 08:25:42;;;;;;;6.97;3.83;;;;;;;22.39;79.13;95614.91;5042067;28;20036;-64
2022/05/23 08:28:07;;;;;;;8.98;3.95;;;;;;;23.00;78.69;95602.78;5017304;28;20136;-66
2022/05/23 08:30:33;;;;;;;13.05;4.25;;;;;;;22.69;78.19;95601.13;5030793;28;20049;-67
2022/05/23 08:32:58;;;;;;;12.82;4.78;;;;;;;23.04;79.23;95597.78;5034698;28;20042;-67
2022/05/23 08:35:24;;;;;;;7.47;3.90;;;;;;;23.56;73.28;95589.94;5030800;28;20516;-67
2022/05/23 08:37:52;;;;;;;8.77;4.00;;;;;;;23.05;78.72;95591.75;5040305;28;20044;-67
2022/05/23 08:40:17;;;;;;;10.35;4.00;;;;;;;23.65;73.42;95589.84;5017709;28;20051;-66
2022/05/23 08:42:58;;;;;;;9.85;3.88;;;;;;;24.48;69.95;95584.63;5039045;28;20048;-64
2022/05/23 08:45:30;;;;;;;12.70;4.07;;;;;;;22.91;75.40;95589.66;5035403;28;20482;-67
2022/05/23 08:48:39;;;;;;;8.60;4.35;;;;;;;22.97;76.29;95578.59;5028242;28;20056;-66
2022/05/23 08:51:15;;;;;;;12.55;4.35;;;;;;;23.75;74.30;95573.00;5015900;28;20049;-60
2022/05/23 08:53:51;;;;;;;14.30;7.18;;;;;;;24.75;69.31;95566.69;5037251;28;20041;-64
2022/05/23 08:56:26;;;;;;;8.90;4.47;;;;;;;23.41;73.46;95561.22;5015327;28;20041;-65
2022/05/23 08:58:58;;;;;;;7.72;3.83;;;;;;;23.88;72.97;95545.56;5039464;28;20443;-67
2022/05/23 09:01:39;;;;;;;12.27;3.90;;;;;;;23.40;74.16;95542.91;5034499;28;20710;-66
2022/05/23 09:04:16;;;;;;;12.27;4.50;;;;;;;23.23;76.76;95540.56;5021747;28;20045;-61
2022/05/23 09:06:47;;;;;;;9.18;4.00;;;;;;;24.46;72.46;95540.31;5038599;28;20037;-66
2022/05/23 09:09:17;;;;;;;9.15;4.22;;;;;;;25.56;67.52;95539.91;5026417;28;20091;-65
2022/05/23 09:11:45;;;;;;;12.60;4.63;;;;;;;26.12;62.08;95537.59;5039465;28;20041;-65
2022/05/23 09:14:16;;;;;;;7.10;3.60;;;;;;;25.33;66.73;95544.50;5017310;28;20067;-65
2022/05/23 09:16:49;;;;;;;12.90;3.55;;;;;;;25.89;65.11;95547.84;5039006;28;20453;-65
2022/05/23 09:19:34;;;;;;;10.27;4.43;;;;;;;27.19;58.35;95545.09;5024276;28;20395;-65
2022/05/23 09:22:31;;;;;;;4.80;3.33;;;;;;;26.65;60.43;95546.66;5037905;28;20482;-65
2022/05/23 09:24:59;;;;;;;8.30;3.50;;;;;;;26.19;62.12;95538.41;5035598;28;20480;-66
2022/05/23 09:27:50;;;;;;;10.27;4.03;;;;;;;26.32;59.10;95542.31;5013874;28;20045;-64
2022/05/23 09:30:22;;;;;;;8.77;3.65;;;;;;;26.01;61.26;95529.09;5012682;28;20141;-66
2022/05/23 09:33:16;;;;;;;11.65;4.07;;;;;;;25.37;61.89;95531.03;5036920;28;20049;-65
2022/05/23 09:35:41;;;;;;;9.20;4.03;;;;;;;26.83;54.89;95523.00;5015503;28;20072;-65
2022/05/23 09:38:14;;;;;;;16.38;7.47;;;;;;;26.94;57.33;95522.28;5011858;28;20068;-65
2022/05/23 09:40:41;;;;;;;11.50;4.07;;;;;;;27.29;56.55;95526.75;5039307;28;20059;-65
2022/05/23 09:49:13;;;;;;;14.43;5.07;;;;;;;29.79;48.72;95510.94;5035424;28;20482;-60
2022/05/23 09:51:55;;;;;;;10.75;3.95;;;;;;;29.89;49.20;95518.53;5038040;28;20080;-65
2022/05/23 09:54:37;;;;;;;11.32;4.90;;;;;;;30.28;48.03;95511.00;5031066;28;20040;-64
2022/05/23 09:57:15;;;;;;;10.45;3.83;;;;;;;26.95;55.63;95509.75;5032692;28;20179;-60
2022/05/23 09:59:41;;;;;;;14.35;3.90;;;;;;;26.69;55.87;95505.06;5035453;28;20045;-63
2022/05/23 10:02:15;;;;;;;9.45;3.70;;;;;;;25.82;59.23;95505.44;5015399;28;20051;-63
2022/05/23 10:04:45;;;;;;;11.65;4.30;;;;;;;26.62;58.56;95516.00;5037340;28;20222;-65
2022/05/23 10:07:31;;;;;;;11.23;3.60;;;;;;;27.67;54.16;95507.66;5012568;28;20045;-64
2022/05/23 10:10:03;;;;;;;11.38;3.70;;;;;;;26.82;58.83;95510.22;5045970;28;20127;-62
2022/05/23 10:12:30;;;;;;;10.45;3.95;;;;;;;28.83;54.35;95505.75;5037257;28;20567;-67
2022/05/23 10:15:13;;;;;;;11.65;4.10;;;;;;;29.27;51.11;95518.91;5042126;28;20053;-67
2022/05/23 10:17:41;;;;;;;11.35;3.63;;;;;;;29.62;50.41;95511.00;5038101;28;20148;-66
2022/05/23 10:20:37;;;;;;;8.60;4.07;;;;;;;30.05;48.96;95507.63;5031949;28;20128;-63
2022/05/23 10:23:20;;;;;;;9.95;4.72;;;;;;;29.72;48.01;95498.13;5034802;28;20069;-60
2022/05/23 10:26:00;;;;;;;11.68;3.47;;;;;;;29.77;48.39;95502.22;5020376;28;20103;-65
2022/05/23 10:28:50;;;;;;;9.85;4.10;;;;;;;30.64;46.12;95494.75;5019729;28;20045;-65
2022/05/23 10:31:47;;;;;;;7.97;3.42;;;;;;;30.09;47.11;95503.22;5026821;28;20033;-65
2022/05/23 10:34:39;;;;;;;9.93;3.30;;;;;;;30.13;47.51;95510.66;5017515;28;20588;-65
2022/05/23 10:37:08;;;;;;;9.63;3.70;;;;;;;30.61;47.02;95512.00;5018578;28;20477;-61
2022/05/23 10:42:45;;;;;;;10.23;3.10;;;;;;;30.62;45.86;95524.84;5024244;28;20473;-65
2022/05/23 10:45:28;;;;;;;9.93;3.67;;;;;;;30.99;44.28;95510.06;5031378;28;20041;-62
2022/05/23 10:48:21;;;;;;;11.57;3.30;;;;;;;30.94;44.57;95515.78;5042536;28;20041;-65
2022/05/23 10:50:53;;;;;;;14.90;3.40;;;;;;;30.71;44.97;95523.72;5022099;28;20045;-65
2022/05/23 10:54:03;;;;;;;8.40;3.42;;;;;;;30.93;44.56;95531.19;5042354;28;20052;-65
2022/05/23 10:56:34;;;;;;;7.53;3.33;;;;;;;30.77;46.06;95547.03;5028271;28;20037;-64
2022/05/23 10:59:28;;;;;;;10.68;3.67;;;;;;;29.77;48.69;95547.38;5044842;28;20072;-63
2022/05/23 11:02:12;;;;;;;14.70;3.45;;;;;;;29.92;48.26;95540.06;5042022;28;20093;-64
2022/05/23 11:04:56;;;;;;;12.32;3.60;;;;;;;30.40;48.35;95546.38;5028704;28;20552;-64
2022/05/23 11:07:24;;;;;;;11.90;3.33;;;;;;;30.07;48.89;95548.16;5036025;28;22114;-64
2022/05/23 11:10:01;;;;;;;10.93;3.28;;;;;;;29.70;49.72;95540.97;5041596;28;20056;-64
2022/05/23 11:12:40;;;;;;;7.15;3.20;;;;;;;29.73;49.35;95525.06;5029965;28;20041;-64
2022/05/23 11:15:27;;;;;;;11.13;3.45;;;;;;;29.29;51.10;95535.31;5037650;28;20040;-64
2022/05/23 11:18:18;;;;;;;8.43;3.72;;;;;;;29.20;51.86;95536.38;5041974;28;20044;-66
2022/05/23 11:20:46;;;;;;;9.05;3.60;;;;;;;28.67;51.84;95527.84;5023818;28;20055;-67
2022/05/23 11:23:25;;;;;;;9.63;3.83;;;;;;;28.09;53.10;95524.81;5036770;28;20653;-66
2022/05/23 11:25:59;;;;;;;10.90;3.92;;;;;;;28.65;52.40;95521.97;5039801;28;20080;-64
2022/05/23 11:34:21;;;;;;;15.15;4.13;;;;;;;28.62;49.34;95503.25;5042854;28;20045;-65
2022/05/23 11:37:01;;;;;;;9.27;3.80;;;;;;;28.47;49.97;95491.50;5047875;28;20133;-64
2022/05/23 11:39:49;;;;;;;12.93;3.50;;;;;;;28.52;50.88;95496.34;5036401;28;20041;-65
2022/05/23 11:42:49;;;;;;;11.20;3.35;;;;;;;28.57;50.03;95482.28;5012820;28;20044;-66
2022/05/23 11:48:40;;;;;;;9.43;3.13;;;;;;;28.07;47.99;95462.66;5030273;28;20048;-63
2022/05/23 11:51:17;;;;;;;10.30;2.47;;;;;;;27.80;44.25;95462.13;5042856;28;20045;-62
2022/05/23 11:54:01;;;;;;;5.88;1.23;;;;;;;27.51;37.62;95461.34;5046439;28;20045;-65
2022/05/23 11:56:47;;;;;;;6.35;1.30;;;;;;;27.32;37.23;95446.28;5019355;28;20037;-65
2022/05/23 11:59:32;;;;;;;5.45;1.30;;;;;;;27.16;38.51;95465.38;5036889;28;20199;-65
2022/05/23 12:02:07;;;;;;;9.07;1.55;;;;;;;27.05;39.26;95487.84;5028276;28;20053;-62
2022/05/23 12:04:48;;;;;;;7.15;1.40;;;;;;;26.73;39.74;95481.59;5047095;28;20074;-68
2022/05/23 12:07:39;;;;;;;6.60;1.55;;;;;;;26.43;40.20;95467.88;5036223;28;20505;-63
2022/05/23 12:10:24;;;;;;;6.38;1.55;;;;;;;26.32;40.69;95449.69;5036345;28;20049;-60
2022/05/23 12:12:56;;;;;;;5.60;1.70;;;;;;;26.10;41.92;95441.94;5041492;28;20553;-66
2022/05/23 12:15:54;;;;;;;9.43;1.85;;;;;;;26.09;41.65;95442.44;5035282;28;20052;-66
2022/05/23 12:18:23;;;;;;;5.43;1.42;;;;;;;25.89;41.55;95446.09;5017476;28;20053;-65
2022/05/23 12:21:00;;;;;;;8.73;2.17;;;;;;;25.27;44.26;95457.56;5023379;28;20037;-63
2022/05/23 12:23:31;;;;;;;8.70;1.77;;;;;;;24.40;46.89;95475.13;5034561;28;20575;-66
2022/05/23 12:26:07;;;;;;;9.98;1.80;;;;;;;23.90;49.78;95478.72;5005549;28;20049;-66
2022/05/23 12:28:46;;;;;;;12.07;2.00;;;;;;;23.77;49.28;95483.81;5021735;28;20397;-63
2022/05/23 12:31:16;;;;;;;10.88;2.65;;;;;;;23.99;49.36;95491.84;5036385;28;20049;-64
2022/05/23 12:34:02;;;;;;;8.10;2.83;;;;;;;23.96;49.37;95509.56;5041240;28;20044;-65
2022/05/23 12:36:31;;;;;;;10.52;2.20;;;;;;;23.69;50.39;95499.47;5036900;28;20095;-64
2022/05/23 12:38:57;;;;;;;;;;;;;;;23.39;51.55;95500.25;5041282;28;20513;-64
2022/05/23 12:41:43;;;;;;;10.25;2.67;;;;;;;23.39;50.61;95508.63;5034192;28;19916;-67